sensor_id;sensor_type;location;lat;lon;timestamp;P1;durP1;ratioP1;P2;durP2;ratioP2
69502;SDS011;56704;54.242;12.442;2022-07-23T00:00:17;4.22;;;1.40;;
69502;SDS011;56704;54.242;12.442;2022-07-23T00:02:45;4.22;;;1.20;;
69502;SDS011;56704;54.242;12.442;2022-07-23T00:05:12;3.13;;;1.20;;
69502;SDS011;56704;54.242;12.442;2022-07-23T00:07:38;3.30;;;0.95;;
69502;SDS011;56704;54.242;12.442;2022-07-23T00:10:05;4.73;;;1.20;;
69502;SDS011;56704;54.242;12.442;2022-07-23T00:12:33;3.17;;;1.20;;
69502;SDS011;56704;54.242;12.442;2022-07-23T00:14:59;5.20;;;1.50;;
69502;SDS011;56704;54.242;12.442;2022-07-23T00:17:27;3.40;;;1.08;;
69502;SDS011;56704;54.242;12.442;2022-07-23T00:19:55;3.70;;;1.10;;
69502;SDS011;56704;54.242;12.442;2022-07-23T00:22:22;6.20;;;1.10;;
69502;SDS011;56704;54.242;12.442;2022-07-23T00:24:48;3.25;;;0.77;;
69502;SDS011;56704;54.242;12.442;2022-07-23T00:27:15;3.85;;;1.13;;
69502;SDS011;56704;54.242;12.442;2022-07-23T00:29:42;4.30;;;1.23;;
69502;SDS011;56704;54.242;12.442;2022-07-23T00:32:08;4.38;;;1.30;;
69502;SDS011;56704;54.242;12.442;2022-07-23T00:34:35;3.17;;;1.20;;
69502;SDS011;56704;54.242;12.442;2022-07-23T00:37:03;5.05;;;1.50;;
69502;SDS011;56704;54.242;12.442;2022-07-23T00:39:29;3.78;;;1.20;;
69502;SDS011;56704;54.242;12.442;2022-07-23T00:41:56;4.68;;;1.20;;
69502;SDS011;56704;54.242;12.442;2022-07-23T00:44:23;4.78;;;1.10;;
69502;SDS011;56704;54.242;12.442;2022-07-23T00:46:52;4.73;;;1.50;;
69502;SDS011;56704;54.242;12.442;2022-07-23T00:49:20;3.25;;;1.08;;
69502;SDS011;56704;54.242;12.442;2022-07-23T00:51:47;2.75;;;1.10;;
69502;SDS011;56704;54.242;12.442;2022-07-23T00:54:17;4.38;;;1.67;;
69502;SDS011;56704;54.242;12.442;2022-07-23T00:56:44;3.55;;;0.90;;
69502;SDS011;56704;54.242;12.442;2022-07-23T00:59:12;5.53;;;1.50;;
69502;SDS011;56704;54.242;12.442;2022-07-23T01:01:39;3.92;;;1.20;;
69502;SDS011;56704;54.242;12.442;2022-07-23T01:04:07;6.00;;;0.98;;
69502;SDS011;56704;54.242;12.442;2022-07-23T01:06:34;3.78;;;1.10;;
69502;SDS011;56704;54.242;12.442;2022-07-23T01:09:04;4.78;;;1.55;;
69502;SDS011;56704;54.242;12.442;2022-07-23T01:11:33;5.83;;;1.53;;
69502;SDS011;56704;54.242;12.442;2022-07-23T01:14:07;3.95;;;1.23;;
69502;SDS011;56704;54.242;12.442;2022-07-23T01:16:37;4.53;;;1.02;;
69502;SDS011;56704;54.242;12.442;2022-07-23T01:19:04;5.07;;;1.40;;
69502;SDS011;56704;54.242;12.442;2022-07-23T01:21:31;3.17;;;1.30;;
69502;SDS011;56704;54.242;12.442;2022-07-23T01:24:00;4.00;;;1.00;;
69502;SDS011;56704;54.242;12.442;2022-07-23T01:26:27;5.72;;;1.30;;
69502;SDS011;56704;54.242;12.442;2022-07-23T01:28:53;5.18;;;1.20;;
69502;SDS011;56704;54.242;12.442;2022-07-23T01:31:20;3.95;;;1.60;;
69502;SDS011;56704;54.242;12.442;2022-07-23T01:33:47;3.97;;;1.15;;
69502;SDS011;56704;54.242;12.442;2022-07-23T01:36:14;3.30;;;1.37;;
69502;SDS011;56704;54.242;12.442;2022-07-23T01:38:40;4.72;;;1.48;;
69502;SDS011;56704;54.242;12.442;2022-07-23T01:41:08;3.20;;;1.05;;
69502;SDS011;56704;54.242;12.442;2022-07-23T01:43:35;2.92;;;0.63;;
69502;SDS011;56704;54.242;12.442;2022-07-23T01:46:01;5.43;;;1.10;;
69502;SDS011;56704;54.242;12.442;2022-07-23T01:48:28;3.20;;;1.10;;
69502;SDS011;56704;54.242;12.442;2022-07-23T01:50:54;3.45;;;1.30;;
69502;SDS011;56704;54.242;12.442;2022-07-23T01:53:21;4.13;;;1.30;;
69502;SDS011;56704;54.242;12.442;2022-07-23T01:55:48;2.50;;;0.68;;
69502;SDS011;56704;54.242;12.442;2022-07-23T01:58:15;3.42;;;1.05;;
69502;SDS011;56704;54.242;12.442;2022-07-23T02:00:42;4.07;;;1.50;;
69502;SDS011;56704;54.242;12.442;2022-07-23T02:03:09;4.72;;;1.73;;
69502;SDS011;56704;54.242;12.442;2022-07-23T02:05:35;2.65;;;0.82;;
69502;SDS011;56704;54.242;12.442;2022-07-23T02:08:02;3.75;;;1.23;;
69502;SDS011;56704;54.242;12.442;2022-07-23T02:10:28;3.33;;;1.05;;
69502;SDS011;56704;54.242;12.442;2022-07-23T02:12:55;4.30;;;1.37;;
69502;SDS011;56704;54.242;12.442;2022-07-23T02:15:23;3.40;;;1.23;;
69502;SDS011;56704;54.242;12.442;2022-07-23T02:17:49;4.45;;;1.30;;
69502;SDS011;56704;54.242;12.442;2022-07-23T02:20:16;3.63;;;1.02;;
69502;SDS011;56704;54.242;12.442;2022-07-23T02:22:43;3.05;;;1.00;;
69502;SDS011;56704;54.242;12.442;2022-07-23T02:25:09;2.87;;;0.77;;
69502;SDS011;56704;54.242;12.442;2022-07-23T02:27:36;4.30;;;1.10;;
69502;SDS011;56704;54.242;12.442;2022-07-23T02:30:03;3.72;;;0.90;;
69502;SDS011;56704;54.242;12.442;2022-07-23T02:32:32;1.95;;;0.55;;
69502;SDS011;56704;54.242;12.442;2022-07-23T02:34:59;2.65;;;1.02;;
69502;SDS011;56704;54.242;12.442;2022-07-23T02:37:25;4.77;;;0.93;;
69502;SDS011;56704;54.242;12.442;2022-07-23T02:39:52;2.97;;;0.90;;
69502;SDS011;56704;54.242;12.442;2022-07-23T02:42:19;3.75;;;0.90;;
69502;SDS011;56704;54.242;12.442;2022-07-23T02:44:45;3.88;;;0.80;;
69502;SDS011;56704;54.242;12.442;2022-07-23T02:47:12;4.05;;;0.98;;
69502;SDS011;56704;54.242;12.442;2022-07-23T02:49:40;3.20;;;0.80;;
69502;SDS011;56704;54.242;12.442;2022-07-23T02:52:06;4.47;;;0.80;;
69502;SDS011;56704;54.242;12.442;2022-07-23T02:54:35;2.65;;;0.80;;
69502;SDS011;56704;54.242;12.442;2022-07-23T02:57:02;3.30;;;0.93;;
69502;SDS011;56704;54.242;12.442;2022-07-23T02:59:28;2.55;;;0.60;;
69502;SDS011;56704;54.242;12.442;2022-07-23T03:01:55;4.60;;;0.67;;
69502;SDS011;56704;54.242;12.442;2022-07-23T03:04:21;3.88;;;0.80;;
69502;SDS011;56704;54.242;12.442;2022-07-23T03:06:49;6.50;;;1.02;;
69502;SDS011;56704;54.242;12.442;2022-07-23T03:09:17;2.15;;;0.68;;
69502;SDS011;56704;54.242;12.442;2022-07-23T03:11:43;4.43;;;0.90;;
69502;SDS011;56704;54.242;12.442;2022-07-23T03:14:10;3.80;;;0.70;;
69502;SDS011;56704;54.242;12.442;2022-07-23T03:16:38;3.90;;;0.70;;
69502;SDS011;56704;54.242;12.442;2022-07-23T03:19:05;3.67;;;0.88;;
69502;SDS011;56704;54.242;12.442;2022-07-23T03:21:31;2.92;;;0.85;;
69502;SDS011;56704;54.242;12.442;2022-07-23T03:24:00;2.63;;;0.68;;
69502;SDS011;56704;54.242;12.442;2022-07-23T03:26:26;2.90;;;1.00;;
69502;SDS011;56704;54.242;12.442;2022-07-23T03:28:53;3.63;;;0.85;;
69502;SDS011;56704;54.242;12.442;2022-07-23T03:31:19;3.85;;;0.90;;
69502;SDS011;56704;54.242;12.442;2022-07-23T03:33:46;2.88;;;0.50;;
69502;SDS011;56704;54.242;12.442;2022-07-23T03:36:12;2.42;;;0.65;;
69502;SDS011;56704;54.242;12.442;2022-07-23T03:38:39;4.27;;;0.70;;
69502;SDS011;56704;54.242;12.442;2022-07-23T03:41:07;2.42;;;0.50;;
69502;SDS011;56704;54.242;12.442;2022-07-23T03:43:33;6.47;;;0.90;;
69502;SDS011;56704;54.242;12.442;2022-07-23T03:46:00;3.08;;;0.60;;
69502;SDS011;56704;54.242;12.442;2022-07-23T03:48:27;1.58;;;0.40;;
69502;SDS011;56704;54.242;12.442;2022-07-23T03:50:53;6.23;;;0.97;;
69502;SDS011;56704;54.242;12.442;2022-07-23T03:53:20;2.53;;;0.75;;
69502;SDS011;56704;54.242;12.442;2022-07-23T03:55:46;3.53;;;0.90;;
69502;SDS011;56704;54.242;12.442;2022-07-23T03:58:14;2.10;;;0.70;;
69502;SDS011;56704;54.242;12.442;2022-07-23T04:00:41;3.33;;;0.80;;
69502;SDS011;56704;54.242;12.442;2022-07-23T04:03:08;4.87;;;1.30;;
69502;SDS011;56704;54.242;12.442;2022-07-23T04:05:34;4.55;;;0.77;;
69502;SDS011;56704;54.242;12.442;2022-07-23T04:08:01;4.32;;;1.55;;
69502;SDS011;56704;54.242;12.442;2022-07-23T04:10:27;4.10;;;0.95;;
69502;SDS011;56704;54.242;12.442;2022-07-23T04:12:54;3.95;;;0.90;;
69502;SDS011;56704;54.242;12.442;2022-07-23T04:15:22;3.50;;;0.97;;
69502;SDS011;56704;54.242;12.442;2022-07-23T04:17:48;3.33;;;0.82;;
69502;SDS011;56704;54.242;12.442;2022-07-23T04:20:15;4.25;;;1.30;;
69502;SDS011;56704;54.242;12.442;2022-07-23T04:22:42;5.95;;;1.20;;
69502;SDS011;56704;54.242;12.442;2022-07-23T04:25:08;8.00;;;1.67;;
69502;SDS011;56704;54.242;12.442;2022-07-23T04:27:35;3.70;;;1.27;;
69502;SDS011;56704;54.242;12.442;2022-07-23T04:30:02;3.55;;;1.15;;
69502;SDS011;56704;54.242;12.442;2022-07-23T04:32:30;6.60;;;1.40;;
69502;SDS011;56704;54.242;12.442;2022-07-23T04:34:56;3.38;;;0.68;;
69502;SDS011;56704;54.242;12.442;2022-07-23T04:37:23;3.40;;;1.60;;
69502;SDS011;56704;54.242;12.442;2022-07-23T04:39:50;5.43;;;0.93;;
69502;SDS011;56704;54.242;12.442;2022-07-23T04:42:16;2.65;;;0.75;;
69502;SDS011;56704;54.242;12.442;2022-07-23T04:44:43;5.75;;;1.17;;
69502;SDS011;56704;54.242;12.442;2022-07-23T04:47:09;5.03;;;1.15;;
69502;SDS011;56704;54.242;12.442;2022-07-23T04:49:38;3.58;;;0.93;;
69502;SDS011;56704;54.242;12.442;2022-07-23T04:52:04;4.77;;;1.43;;
69502;SDS011;56704;54.242;12.442;2022-07-23T04:54:31;3.20;;;0.90;;
69502;SDS011;56704;54.242;12.442;2022-07-23T04:56:57;3.60;;;0.70;;
69502;SDS011;56704;54.242;12.442;2022-07-23T04:59:24;4.70;;;1.40;;
69502;SDS011;56704;54.242;12.442;2022-07-23T05:01:51;3.10;;;0.90;;
69502;SDS011;56704;54.242;12.442;2022-07-23T05:04:17;4.20;;;1.50;;
69502;SDS011;56704;54.242;12.442;2022-07-23T05:06:46;3.80;;;1.10;;
69502;SDS011;56704;54.242;12.442;2022-07-23T05:09:12;2.60;;;1.00;;
69502;SDS011;56704;54.242;12.442;2022-07-23T05:11:39;2.88;;;1.00;;
69502;SDS011;56704;54.242;12.442;2022-07-23T05:14:06;3.40;;;1.05;;
69502;SDS011;56704;54.242;12.442;2022-07-23T05:16:32;5.17;;;1.00;;
69502;SDS011;56704;54.242;12.442;2022-07-23T05:18:59;4.65;;;0.98;;
69502;SDS011;56704;54.242;12.442;2022-07-23T05:21:25;2.53;;;0.82;;
69502;SDS011;56704;54.242;12.442;2022-07-23T05:23:53;3.72;;;1.20;;
69502;SDS011;56704;54.242;12.442;2022-07-23T05:26:20;3.60;;;0.93;;
69502;SDS011;56704;54.242;12.442;2022-07-23T05:28:46;5.57;;;1.20;;
69502;SDS011;56704;54.242;12.442;2022-07-23T05:31:13;3.60;;;0.95;;
69502;SDS011;56704;54.242;12.442;2022-07-23T05:33:40;3.70;;;1.10;;
69502;SDS011;56704;54.242;12.442;2022-07-23T05:36:06;3.05;;;0.90;;
69502;SDS011;56704;54.242;12.442;2022-07-23T05:38:33;1.92;;;0.35;;
69502;SDS011;56704;54.242;12.442;2022-07-23T05:41:01;4.13;;;0.80;;
69502;SDS011;56704;54.242;12.442;2022-07-23T05:43:28;4.07;;;1.10;;
69502;SDS011;56704;54.242;12.442;2022-07-23T05:45:55;5.63;;;1.00;;
69502;SDS011;56704;54.242;12.442;2022-07-23T05:48:21;5.78;;;1.40;;
69502;SDS011;56704;54.242;12.442;2022-07-23T05:50:48;2.13;;;0.50;;
69502;SDS011;56704;54.242;12.442;2022-07-23T05:53:15;5.07;;;1.10;;
69502;SDS011;56704;54.242;12.442;2022-07-23T05:55:41;2.50;;;0.68;;
69502;SDS011;56704;54.242;12.442;2022-07-23T05:58:10;3.22;;;0.95;;
69502;SDS011;56704;54.242;12.442;2022-07-23T06:00:36;3.95;;;0.95;;
69502;SDS011;56704;54.242;12.442;2022-07-23T06:03:03;4.63;;;1.00;;
69502;SDS011;56704;54.242;12.442;2022-07-23T06:05:29;2.47;;;0.77;;
69502;SDS011;56704;54.242;12.442;2022-07-23T06:07:56;5.00;;;0.93;;
69502;SDS011;56704;54.242;12.442;2022-07-23T06:10:22;2.78;;;0.90;;
69502;SDS011;56704;54.242;12.442;2022-07-23T06:12:49;4.30;;;1.23;;
69502;SDS011;56704;54.242;12.442;2022-07-23T06:15:17;1.90;;;0.52;;
69502;SDS011;56704;54.242;12.442;2022-07-23T06:17:43;5.00;;;1.17;;
69502;SDS011;56704;54.242;12.442;2022-07-23T06:20:10;2.75;;;0.82;;
69502;SDS011;56704;54.242;12.442;2022-07-23T06:22:37;3.45;;;0.90;;
69502;SDS011;56704;54.242;12.442;2022-07-23T06:25:04;2.28;;;0.60;;
69502;SDS011;56704;54.242;12.442;2022-07-23T06:27:32;4.40;;;0.88;;
69502;SDS011;56704;54.242;12.442;2022-07-23T06:29:58;2.33;;;0.43;;
69502;SDS011;56704;54.242;12.442;2022-07-23T06:32:26;2.35;;;0.55;;
69502;SDS011;56704;54.242;12.442;2022-07-23T06:34:53;3.85;;;0.50;;
69502;SDS011;56704;54.242;12.442;2022-07-23T06:37:19;4.18;;;0.80;;
69502;SDS011;56704;54.242;12.442;2022-07-23T06:39:46;2.97;;;0.80;;
69502;SDS011;56704;54.242;12.442;2022-07-23T06:42:12;2.70;;;0.60;;
69502;SDS011;56704;54.242;12.442;2022-07-23T06:44:40;2.78;;;0.70;;
69502;SDS011;56704;54.242;12.442;2022-07-23T06:47:06;2.85;;;0.65;;
69502;SDS011;56704;54.242;12.442;2022-07-23T06:49:34;3.40;;;0.63;;
69502;SDS011;56704;54.242;12.442;2022-07-23T06:52:01;4.55;;;0.70;;
69502;SDS011;56704;54.242;12.442;2022-07-23T06:54:28;3.97;;;0.67;;
69502;SDS011;56704;54.242;12.442;2022-07-23T06:56:54;3.72;;;0.77;;
69502;SDS011;56704;54.242;12.442;2022-07-23T06:59:21;2.97;;;0.63;;
69502;SDS011;56704;54.242;12.442;2022-07-23T07:01:47;1.10;;;0.20;;
69502;SDS011;56704;54.242;12.442;2022-07-23T07:04:14;1.88;;;0.30;;
69502;SDS011;56704;54.242;12.442;2022-07-23T07:06:42;1.97;;;0.30;;
69502;SDS011;56704;54.242;12.442;2022-07-23T07:09:08;1.88;;;0.38;;
69502;SDS011;56704;54.242;12.442;2022-07-23T07:11:35;2.10;;;0.40;;
69502;SDS011;56704;54.242;12.442;2022-07-23T07:14:02;3.50;;;0.38;;
69502;SDS011;56704;54.242;12.442;2022-07-23T07:16:29;1.73;;;0.30;;
69502;SDS011;56704;54.242;12.442;2022-07-23T07:18:56;4.23;;;0.50;;
69502;SDS011;56704;54.242;12.442;2022-07-23T07:21:22;2.17;;;0.30;;
69502;SDS011;56704;54.242;12.442;2022-07-23T07:23:50;4.32;;;0.40;;
69502;SDS011;56704;54.242;12.442;2022-07-23T07:26:16;2.35;;;0.40;;
69502;SDS011;56704;54.242;12.442;2022-07-23T07:28:43;2.75;;;0.30;;
69502;SDS011;56704;54.242;12.442;2022-07-23T07:31:10;2.53;;;0.50;;
69502;SDS011;56704;54.242;12.442;2022-07-23T07:33:36;3.03;;;0.40;;
69502;SDS011;56704;54.242;12.442;2022-07-23T07:36:03;1.08;;;0.30;;
69502;SDS011;56704;54.242;12.442;2022-07-23T07:38:30;2.10;;;0.30;;
69502;SDS011;56704;54.242;12.442;2022-07-23T07:40:58;2.10;;;0.57;;
69502;SDS011;56704;54.242;12.442;2022-07-23T07:43:25;1.77;;;0.30;;
69502;SDS011;56704;54.242;12.442;2022-07-23T07:45:51;2.00;;;0.25;;
69502;SDS011;56704;54.242;12.442;2022-07-23T07:48:18;1.33;;;0.20;;
69502;SDS011;56704;54.242;12.442;2022-07-23T07:50:44;2.10;;;0.40;;
69502;SDS011;56704;54.242;12.442;2022-07-23T07:53:11;2.85;;;0.30;;
69502;SDS011;56704;54.242;12.442;2022-07-23T07:55:38;1.80;;;0.33;;
69502;SDS011;56704;54.242;12.442;2022-07-23T07:58:06;1.83;;;0.22;;
69502;SDS011;56704;54.242;12.442;2022-07-23T08:00:32;1.60;;;0.32;;
69502;SDS011;56704;54.242;12.442;2022-07-23T08:02:59;2.65;;;0.30;;
69502;SDS011;56704;54.242;12.442;2022-07-23T08:05:27;1.65;;;0.30;;
69502;SDS011;56704;54.242;12.442;2022-07-23T08:07:55;1.67;;;0.40;;
69502;SDS011;56704;54.242;12.442;2022-07-23T08:10:23;2.08;;;0.40;;
69502;SDS011;56704;54.242;12.442;2022-07-23T08:12:50;2.75;;;0.43;;
69502;SDS011;56704;54.242;12.442;2022-07-23T08:15:22;1.05;;;0.20;;
69502;SDS011;56704;54.242;12.442;2022-07-23T08:17:49;1.63;;;0.30;;
69502;SDS011;56704;54.242;12.442;2022-07-23T08:20:16;0.90;;;0.10;;
69502;SDS011;56704;54.242;12.442;2022-07-23T08:22:46;2.33;;;0.20;;
69502;SDS011;56704;54.242;12.442;2022-07-23T08:25:14;0.70;;;0.10;;
69502;SDS011;56704;54.242;12.442;2022-07-23T08:27:41;3.72;;;0.30;;
69502;SDS011;56704;54.242;12.442;2022-07-23T08:30:09;1.52;;;0.32;;
69502;SDS011;56704;54.242;12.442;2022-07-23T08:32:53;1.27;;;0.27;;
69502;SDS011;56704;54.242;12.442;2022-07-23T08:35:22;1.70;;;0.30;;
69502;SDS011;56704;54.242;12.442;2022-07-23T08:37:52;3.30;;;0.75;;
69502;SDS011;56704;54.242;12.442;2022-07-23T08:40:19;1.60;;;0.20;;
69502;SDS011;56704;54.242;12.442;2022-07-23T08:42:47;1.77;;;0.28;;
69502;SDS011;56704;54.242;12.442;2022-07-23T08:45:15;0.80;;;0.20;;
69502;SDS011;56704;54.242;12.442;2022-07-23T08:47:43;1.45;;;0.20;;
69502;SDS011;56704;54.242;12.442;2022-07-23T08:50:13;1.48;;;0.30;;
69502;SDS011;56704;54.242;12.442;2022-07-23T08:52:40;2.35;;;0.35;;
69502;SDS011;56704;54.242;12.442;2022-07-23T08:55:07;2.03;;;0.30;;
69502;SDS011;56704;54.242;12.442;2022-07-23T08:57:33;2.27;;;0.30;;
69502;SDS011;56704;54.242;12.442;2022-07-23T09:00:00;1.38;;;0.30;;
69502;SDS011;56704;54.242;12.442;2022-07-23T09:02:27;1.08;;;0.32;;
69502;SDS011;56704;54.242;12.442;2022-07-23T09:04:54;1.80;;;0.30;;
69502;SDS011;56704;54.242;12.442;2022-07-23T09:07:21;1.98;;;0.30;;
69502;SDS011;56704;54.242;12.442;2022-07-23T09:09:50;2.10;;;0.30;;
69502;SDS011;56704;54.242;12.442;2022-07-23T09:12:32;3.65;;;0.50;;
69502;SDS011;56704;54.242;12.442;2022-07-23T09:15:02;2.45;;;0.50;;
69502;SDS011;56704;54.242;12.442;2022-07-23T09:17:31;2.55;;;0.50;;
69502;SDS011;56704;54.242;12.442;2022-07-23T09:20:07;2.95;;;0.40;;
69502;SDS011;56704;54.242;12.442;2022-07-23T09:22:36;2.93;;;0.30;;
69502;SDS011;56704;54.242;12.442;2022-07-23T09:25:04;2.20;;;0.50;;
69502;SDS011;56704;54.242;12.442;2022-07-23T09:27:49;1.50;;;0.30;;
69502;SDS011;56704;54.242;12.442;2022-07-23T09:30:18;3.03;;;0.60;;
69502;SDS011;56704;54.242;12.442;2022-07-23T09:35:43;3.37;;;0.70;;
69502;SDS011;56704;54.242;12.442;2022-07-23T09:38:12;2.13;;;0.40;;
69502;SDS011;56704;54.242;12.442;2022-07-23T09:40:38;1.45;;;0.32;;
69502;SDS011;56704;54.242;12.442;2022-07-23T09:43:05;4.22;;;1.13;;
69502;SDS011;56704;54.242;12.442;2022-07-23T09:45:31;2.35;;;0.45;;
69502;SDS011;56704;54.242;12.442;2022-07-23T09:48:09;5.23;;;1.10;;
69502;SDS011;56704;54.242;12.442;2022-07-23T09:50:36;3.10;;;0.50;;
69502;SDS011;56704;54.242;12.442;2022-07-23T09:53:03;3.05;;;0.50;;
69502;SDS011;56704;54.242;12.442;2022-07-23T09:55:32;2.35;;;0.40;;
69502;SDS011;56704;54.242;12.442;2022-07-23T09:58:01;1.77;;;0.50;;
69502;SDS011;56704;54.242;12.442;2022-07-23T10:00:28;1.83;;;0.50;;
69502;SDS011;56704;54.242;12.442;2022-07-23T10:02:56;1.23;;;0.30;;
69502;SDS011;56704;54.242;12.442;2022-07-23T10:05:23;2.22;;;0.40;;
69502;SDS011;56704;54.242;12.442;2022-07-23T10:07:51;4.93;;;0.70;;
69502;SDS011;56704;54.242;12.442;2022-07-23T10:10:17;2.45;;;0.40;;
69502;SDS011;56704;54.242;12.442;2022-07-23T10:12:45;4.33;;;0.90;;
69502;SDS011;56704;54.242;12.442;2022-07-23T10:15:34;2.42;;;0.60;;
69502;SDS011;56704;54.242;12.442;2022-07-23T10:18:01;1.63;;;0.50;;
69502;SDS011;56704;54.242;12.442;2022-07-23T10:20:27;1.85;;;0.43;;
69502;SDS011;56704;54.242;12.442;2022-07-23T10:22:56;2.35;;;0.70;;
69502;SDS011;56704;54.242;12.442;2022-07-23T10:25:32;2.90;;;0.47;;
69502;SDS011;56704;54.242;12.442;2022-07-23T10:28:06;3.78;;;0.47;;
69502;SDS011;56704;54.242;12.442;2022-07-23T10:30:43;2.20;;;0.32;;
69502;SDS011;56704;54.242;12.442;2022-07-23T10:33:23;3.13;;;0.50;;
69502;SDS011;56704;54.242;12.442;2022-07-23T10:35:57;3.13;;;0.50;;
69502;SDS011;56704;54.242;12.442;2022-07-23T10:38:37;3.43;;;0.40;;
69502;SDS011;56704;54.242;12.442;2022-07-23T10:41:13;2.55;;;0.60;;
69502;SDS011;56704;54.242;12.442;2022-07-23T10:43:41;3.38;;;0.80;;
69502;SDS011;56704;54.242;12.442;2022-07-23T10:46:20;1.58;;;0.40;;
69502;SDS011;56704;54.242;12.442;2022-07-23T10:54:51;3.85;;;0.70;;
69502;SDS011;56704;54.242;12.442;2022-07-23T10:57:19;2.20;;;0.40;;
69502;SDS011;56704;54.242;12.442;2022-07-23T11:02:50;2.42;;;0.75;;
69502;SDS011;56704;54.242;12.442;2022-07-23T11:05:18;1.53;;;0.40;;
69502;SDS011;56704;54.242;12.442;2022-07-23T11:10:40;3.83;;;0.40;;
69502;SDS011;56704;54.242;12.442;2022-07-23T11:16:16;1.70;;;0.30;;
69502;SDS011;56704;54.242;12.442;2022-07-23T11:18:55;1.43;;;0.40;;
69502;SDS011;56704;54.242;12.442;2022-07-23T11:24:13;3.75;;;0.60;;
69502;SDS011;56704;54.242;12.442;2022-07-23T11:26:53;1.77;;;0.50;;
69502;SDS011;56704;54.242;12.442;2022-07-23T11:29:37;2.97;;;0.60;;
69502;SDS011;56704;54.242;12.442;2022-07-23T11:32:24;3.13;;;0.50;;
69502;SDS011;56704;54.242;12.442;2022-07-23T11:34:54;2.70;;;0.65;;
69502;SDS011;56704;54.242;12.442;2022-07-23T11:37:34;3.17;;;0.68;;
69502;SDS011;56704;54.242;12.442;2022-07-23T11:40:04;4.60;;;0.80;;
69502;SDS011;56704;54.242;12.442;2022-07-23T11:42:33;4.65;;;0.60;;
69502;SDS011;56704;54.242;12.442;2022-07-23T11:45:00;1.73;;;0.40;;
69502;SDS011;56704;54.242;12.442;2022-07-23T11:47:29;1.13;;;0.40;;
69502;SDS011;56704;54.242;12.442;2022-07-23T11:49:56;3.33;;;0.80;;
69502;SDS011;56704;54.242;12.442;2022-07-23T11:52:25;3.13;;;0.77;;
69502;SDS011;56704;54.242;12.442;2022-07-23T11:54:53;2.33;;;0.68;;
69502;SDS011;56704;54.242;12.442;2022-07-23T11:57:23;3.33;;;0.70;;
69502;SDS011;56704;54.242;12.442;2022-07-23T11:59:52;2.05;;;0.60;;
69502;SDS011;56704;54.242;12.442;2022-07-23T12:02:22;4.80;;;0.80;;
69502;SDS011;56704;54.242;12.442;2022-07-23T12:04:51;2.42;;;0.63;;
69502;SDS011;56704;54.242;12.442;2022-07-23T12:07:22;2.53;;;0.73;;
69502;SDS011;56704;54.242;12.442;2022-07-23T12:09:54;3.63;;;0.80;;
69502;SDS011;56704;54.242;12.442;2022-07-23T12:12:22;3.08;;;0.55;;
69502;SDS011;56704;54.242;12.442;2022-07-23T12:14:49;3.00;;;0.65;;
69502;SDS011;56704;54.242;12.442;2022-07-23T12:17:17;2.53;;;0.70;;
69502;SDS011;56704;54.242;12.442;2022-07-23T12:19:44;2.38;;;0.73;;
69502;SDS011;56704;54.242;12.442;2022-07-23T12:22:12;3.77;;;0.60;;
69502;SDS011;56704;54.242;12.442;2022-07-23T12:24:53;3.45;;;0.70;;
69502;SDS011;56704;54.242;12.442;2022-07-23T12:27:20;4.32;;;1.00;;
69502;SDS011;56704;54.242;12.442;2022-07-23T12:29:47;3.55;;;0.65;;
69502;SDS011;56704;54.242;12.442;2022-07-23T12:32:18;2.95;;;0.85;;
69502;SDS011;56704;54.242;12.442;2022-07-23T12:34:46;3.37;;;1.00;;
69502;SDS011;56704;54.242;12.442;2022-07-23T12:37:27;2.75;;;0.57;;
69502;SDS011;56704;54.242;12.442;2022-07-23T12:39:54;2.33;;;0.50;;
69502;SDS011;56704;54.242;12.442;2022-07-23T12:42:21;2.65;;;0.90;;
69502;SDS011;56704;54.242;12.442;2022-07-23T12:45:08;3.00;;;0.73;;
69502;SDS011;56704;54.242;12.442;2022-07-23T12:50:35;3.15;;;0.68;;
69502;SDS011;56704;54.242;12.442;2022-07-23T12:53:14;3.42;;;0.80;;
69502;SDS011;56704;54.242;12.442;2022-07-23T12:55:43;3.22;;;0.73;;
69502;SDS011;56704;54.242;12.442;2022-07-23T12:58:13;2.83;;;0.60;;
69502;SDS011;56704;54.242;12.442;2022-07-23T13:00:55;4.57;;;0.80;;
69502;SDS011;56704;54.242;12.442;2022-07-23T13:03:28;3.47;;;0.80;;
69502;SDS011;56704;54.242;12.442;2022-07-23T13:05:57;2.17;;;0.80;;
69502;SDS011;56704;54.242;12.442;2022-07-23T13:08:27;2.50;;;0.47;;
69502;SDS011;56704;54.242;12.442;2022-07-23T13:10:54;2.47;;;0.70;;
69502;SDS011;56704;54.242;12.442;2022-07-23T13:13:22;2.00;;;0.40;;
69502;SDS011;56704;54.242;12.442;2022-07-23T13:15:49;2.65;;;0.60;;
69502;SDS011;56704;54.242;12.442;2022-07-23T13:18:16;2.63;;;0.40;;
69502;SDS011;56704;54.242;12.442;2022-07-23T13:20:43;5.05;;;0.68;;
69502;SDS011;56704;54.242;12.442;2022-07-23T13:23:11;1.85;;;0.60;;
69502;SDS011;56704;54.242;12.442;2022-07-23T13:25:39;2.40;;;0.50;;
69502;SDS011;56704;54.242;12.442;2022-07-23T13:28:05;4.80;;;0.88;;
69502;SDS011;56704;54.242;12.442;2022-07-23T13:30:32;1.98;;;0.40;;
69502;SDS011;56704;54.242;12.442;2022-07-23T13:32:59;1.88;;;0.63;;
69502;SDS011;56704;54.242;12.442;2022-07-23T13:35:25;2.33;;;0.50;;
69502;SDS011;56704;54.242;12.442;2022-07-23T13:37:52;3.53;;;0.50;;
69502;SDS011;56704;54.242;12.442;2022-07-23T13:40:18;8.20;;;0.90;;
69502;SDS011;56704;54.242;12.442;2022-07-23T13:42:46;2.60;;;0.60;;
69502;SDS011;56704;54.242;12.442;2022-07-23T13:45:13;1.33;;;0.30;;
69502;SDS011;56704;54.242;12.442;2022-07-23T13:47:40;1.70;;;0.30;;
69502;SDS011;56704;54.242;12.442;2022-07-23T13:50:07;2.10;;;0.37;;
69502;SDS011;56704;54.242;12.442;2022-07-23T13:52:33;4.05;;;0.43;;
69502;SDS011;56704;54.242;12.442;2022-07-23T13:55:00;1.75;;;0.30;;
69502;SDS011;56704;54.242;12.442;2022-07-23T13:57:28;1.85;;;0.35;;
69502;SDS011;56704;54.242;12.442;2022-07-23T13:59:56;3.08;;;0.45;;
69502;SDS011;56704;54.242;12.442;2022-07-23T14:02:23;2.47;;;0.50;;
69502;SDS011;56704;54.242;12.442;2022-07-23T14:04:50;1.42;;;0.28;;
69502;SDS011;56704;54.242;12.442;2022-07-23T14:07:17;1.92;;;0.50;;
69502;SDS011;56704;54.242;12.442;2022-07-23T14:09:44;2.40;;;0.40;;
69502;SDS011;56704;54.242;12.442;2022-07-23T14:12:11;6.13;;;0.70;;
69502;SDS011;56704;54.242;12.442;2022-07-23T14:14:38;4.40;;;0.80;;
69502;SDS011;56704;54.242;12.442;2022-07-23T14:17:06;2.10;;;0.60;;
69502;SDS011;56704;54.242;12.442;2022-07-23T14:19:32;3.28;;;0.80;;
69502;SDS011;56704;54.242;12.442;2022-07-23T14:22:00;3.45;;;0.70;;
69502;SDS011;56704;54.242;12.442;2022-07-23T14:24:27;3.05;;;0.90;;
69502;SDS011;56704;54.242;12.442;2022-07-23T14:26:53;5.03;;;1.10;;
69502;SDS011;56704;54.242;12.442;2022-07-23T14:29:20;2.88;;;0.80;;
69502;SDS011;56704;54.242;12.442;2022-07-23T14:31:47;1.58;;;0.45;;
69502;SDS011;56704;54.242;12.442;2022-07-23T14:34:15;2.95;;;0.70;;
69502;SDS011;56704;54.242;12.442;2022-07-23T14:36:42;3.05;;;0.90;;
69502;SDS011;56704;54.242;12.442;2022-07-23T14:39:09;3.40;;;0.67;;
69502;SDS011;56704;54.242;12.442;2022-07-23T14:41:37;2.97;;;0.73;;
69502;SDS011;56704;54.242;12.442;2022-07-23T14:44:03;2.58;;;1.17;;
69502;SDS011;56704;54.242;12.442;2022-07-23T14:46:30;3.35;;;0.70;;
69502;SDS011;56704;54.242;12.442;2022-07-23T14:48:57;2.65;;;0.65;;
69502;SDS011;56704;54.242;12.442;2022-07-23T14:51:25;2.77;;;0.90;;
69502;SDS011;56704;54.242;12.442;2022-07-23T14:53:52;4.50;;;0.77;;
69502;SDS011;56704;54.242;12.442;2022-07-23T14:56:19;1.90;;;0.60;;
69502;SDS011;56704;54.242;12.442;2022-07-23T14:58:45;4.05;;;0.70;;
69502;SDS011;56704;54.242;12.442;2022-07-23T15:01:12;3.42;;;0.70;;